Delhi, Louisiana
Current Conditions -  °F | °C
As of 2:53 PM on Friday 31 Oct 2014 (Local Time) from KTVR Reporting Station
Broken Clouds Broken Clouds  
Wind Chill: 66°   Ceiling: 4900
Heat Index: 66°   Visibility: 10mi
Dew Point: 47°   Wind: 13mph
Humidity: 50%   Direction: 360°N
Pressure: 30.1"   Gusts: 22mph
Location:  32.46°N, 91.49°W
Report Text: KTVR 311953Z AUTO 36011G19KT 310V010 10SM BKN049 19/08 A3010 RMK AO2 SLP201 T01890083
Loading
Personal Weather Stations






























Interactive Weather Map
Tropical Storm Tracking
New forecast layout! Learn more

10-Day Weather Forecast

Advertisements
Track Severe Weather on mobile